sensor_id;sensor_type;location;lat;lon;timestamp;P1;durP1;ratioP1;P2;durP2;ratioP2
68256;SDS011;55069;51.568;4.656;2022-07-22T00:01:35;13.33;;;3.13;;
68256;SDS011;55069;51.568;4.656;2022-07-22T00:04:00;9.27;;;2.78;;
68256;SDS011;55069;51.568;4.656;2022-07-22T00:06:27;12.02;;;2.90;;
68256;SDS011;55069;51.568;4.656;2022-07-22T00:08:52;12.13;;;3.03;;
68256;SDS011;55069;51.568;4.656;2022-07-22T00:11:18;9.43;;;2.57;;
68256;SDS011;55069;51.568;4.656;2022-07-22T00:13:43;9.63;;;2.53;;
68256;SDS011;55069;51.568;4.656;2022-07-22T00:16:10;10.35;;;3.42;;
68256;SDS011;55069;51.568;4.656;2022-07-22T00:18:35;11.23;;;2.60;;
68256;SDS011;55069;51.568;4.656;2022-07-22T00:21:01;8.43;;;2.90;;
68256;SDS011;55069;51.568;4.656;2022-07-22T00:23:27;8.23;;;3.13;;
68256;SDS011;55069;51.568;4.656;2022-07-22T00:25:52;14.80;;;3.30;;
68256;SDS011;55069;51.568;4.656;2022-07-22T00:28:19;12.20;;;3.03;;
68256;SDS011;55069;51.568;4.656;2022-07-22T00:30:44;12.50;;;2.85;;
68256;SDS011;55069;51.568;4.656;2022-07-22T00:33:10;15.87;;;3.33;;
68256;SDS011;55069;51.568;4.656;2022-07-22T00:35:35;14.77;;;3.00;;
68256;SDS011;55069;51.568;4.656;2022-07-22T00:38:01;8.97;;;2.77;;
68256;SDS011;55069;51.568;4.656;2022-07-22T00:40:27;8.18;;;3.08;;
68256;SDS011;55069;51.568;4.656;2022-07-22T00:42:53;9.88;;;2.95;;
68256;SDS011;55069;51.568;4.656;2022-07-22T00:45:18;11.97;;;3.10;;
68256;SDS011;55069;51.568;4.656;2022-07-22T00:47:44;10.67;;;3.10;;
68256;SDS011;55069;51.568;4.656;2022-07-22T00:50:10;7.32;;;2.70;;
68256;SDS011;55069;51.568;4.656;2022-07-22T00:52:36;5.87;;;2.60;;
68256;SDS011;55069;51.568;4.656;2022-07-22T00:55:03;7.60;;;2.65;;
68256;SDS011;55069;51.568;4.656;2022-07-22T00:57:29;6.50;;;2.50;;
68256;SDS011;55069;51.568;4.656;2022-07-22T00:59:55;10.70;;;3.00;;
68256;SDS011;55069;51.568;4.656;2022-07-22T01:02:21;7.77;;;2.43;;
68256;SDS011;55069;51.568;4.656;2022-07-22T01:04:47;10.63;;;2.83;;
68256;SDS011;55069;51.568;4.656;2022-07-22T01:07:12;9.63;;;2.80;;
68256;SDS011;55069;51.568;4.656;2022-07-22T01:09:41;11.63;;;2.65;;
68256;SDS011;55069;51.568;4.656;2022-07-22T01:12:10;9.57;;;2.78;;
68256;SDS011;55069;51.568;4.656;2022-07-22T01:14:36;8.03;;;2.73;;
68256;SDS011;55069;51.568;4.656;2022-07-22T01:17:02;8.57;;;3.35;;
68256;SDS011;55069;51.568;4.656;2022-07-22T01:19:28;12.15;;;2.67;;
68256;SDS011;55069;51.568;4.656;2022-07-22T01:21:53;12.83;;;3.40;;
68256;SDS011;55069;51.568;4.656;2022-07-22T01:24:19;7.43;;;2.47;;
68256;SDS011;55069;51.568;4.656;2022-07-22T01:26:45;9.40;;;2.58;;
68256;SDS011;55069;51.568;4.656;2022-07-22T01:29:10;17.90;;;3.50;;
68256;SDS011;55069;51.568;4.656;2022-07-22T01:31:36;10.30;;;2.97;;
68256;SDS011;55069;51.568;4.656;2022-07-22T01:34:01;9.68;;;2.88;;
68256;SDS011;55069;51.568;4.656;2022-07-22T01:36:28;12.33;;;3.33;;
68256;SDS011;55069;51.568;4.656;2022-07-22T01:38:54;6.72;;;2.70;;
68256;SDS011;55069;51.568;4.656;2022-07-22T01:41:20;8.63;;;2.70;;
68256;SDS011;55069;51.568;4.656;2022-07-22T01:43:45;5.88;;;2.67;;
68256;SDS011;55069;51.568;4.656;2022-07-22T01:46:11;8.90;;;3.13;;
68256;SDS011;55069;51.568;4.656;2022-07-22T01:48:39;10.60;;;2.80;;
68256;SDS011;55069;51.568;4.656;2022-07-22T01:51:05;10.90;;;3.35;;
68256;SDS011;55069;51.568;4.656;2022-07-22T01:53:31;6.88;;;3.17;;
68256;SDS011;55069;51.568;4.656;2022-07-22T01:55:58;7.33;;;2.63;;
68256;SDS011;55069;51.568;4.656;2022-07-22T01:58:23;9.55;;;3.17;;
68256;SDS011;55069;51.568;4.656;2022-07-22T02:00:49;7.67;;;3.27;;
68256;SDS011;55069;51.568;4.656;2022-07-22T02:03:15;7.57;;;2.83;;
68256;SDS011;55069;51.568;4.656;2022-07-22T02:05:40;13.23;;;3.42;;
68256;SDS011;55069;51.568;4.656;2022-07-22T02:08:26;10.07;;;2.83;;
68256;SDS011;55069;51.568;4.656;2022-07-22T02:11:08;6.77;;;2.70;;
68256;SDS011;55069;51.568;4.656;2022-07-22T02:13:41;8.15;;;3.20;;
68256;SDS011;55069;51.568;4.656;2022-07-22T02:16:07;9.82;;;3.15;;
68256;SDS011;55069;51.568;4.656;2022-07-22T02:18:35;7.13;;;2.97;;
68256;SDS011;55069;51.568;4.656;2022-07-22T02:21:00;12.50;;;3.00;;
68256;SDS011;55069;51.568;4.656;2022-07-22T02:23:26;5.43;;;2.90;;
68256;SDS011;55069;51.568;4.656;2022-07-22T02:25:51;10.43;;;3.63;;
68256;SDS011;55069;51.568;4.656;2022-07-22T02:28:17;11.90;;;3.27;;
68256;SDS011;55069;51.568;4.656;2022-07-22T02:30:42;9.65;;;3.13;;
68256;SDS011;55069;51.568;4.656;2022-07-22T02:33:08;7.47;;;3.33;;
68256;SDS011;55069;51.568;4.656;2022-07-22T02:35:34;12.48;;;3.55;;
68256;SDS011;55069;51.568;4.656;2022-07-22T02:37:59;8.80;;;3.50;;
68256;SDS011;55069;51.568;4.656;2022-07-22T02:40:25;8.05;;;3.13;;
68256;SDS011;55069;51.568;4.656;2022-07-22T02:42:51;10.27;;;3.13;;
68256;SDS011;55069;51.568;4.656;2022-07-22T02:45:17;8.68;;;3.00;;
68256;SDS011;55069;51.568;4.656;2022-07-22T02:47:50;7.97;;;3.00;;
68256;SDS011;55069;51.568;4.656;2022-07-22T02:50:18;9.52;;;3.00;;
68256;SDS011;55069;51.568;4.656;2022-07-22T02:52:43;5.83;;;3.63;;
68256;SDS011;55069;51.568;4.656;2022-07-22T02:55:10;12.80;;;3.85;;
68256;SDS011;55069;51.568;4.656;2022-07-22T02:57:36;7.97;;;3.47;;
68256;SDS011;55069;51.568;4.656;2022-07-22T03:00:02;10.55;;;3.72;;
68256;SDS011;55069;51.568;4.656;2022-07-22T03:02:32;7.50;;;3.47;;
68256;SDS011;55069;51.568;4.656;2022-07-22T03:04:58;6.20;;;3.13;;
68256;SDS011;55069;51.568;4.656;2022-07-22T03:07:24;5.97;;;3.28;;
68256;SDS011;55069;51.568;4.656;2022-07-22T03:09:49;10.03;;;3.23;;
68256;SDS011;55069;51.568;4.656;2022-07-22T03:12:15;7.28;;;2.85;;
68256;SDS011;55069;51.568;4.656;2022-07-22T03:14:41;4.73;;;2.83;;
68256;SDS011;55069;51.568;4.656;2022-07-22T03:17:06;4.87;;;2.63;;
68256;SDS011;55069;51.568;4.656;2022-07-22T03:19:32;7.18;;;3.13;;
68256;SDS011;55069;51.568;4.656;2022-07-22T03:21:57;8.20;;;2.80;;
68256;SDS011;55069;51.568;4.656;2022-07-22T03:24:23;6.67;;;3.43;;
68256;SDS011;55069;51.568;4.656;2022-07-22T03:26:49;8.70;;;3.55;;
68256;SDS011;55069;51.568;4.656;2022-07-22T03:29:14;6.37;;;2.70;;
68256;SDS011;55069;51.568;4.656;2022-07-22T03:31:40;5.53;;;3.03;;
68256;SDS011;55069;51.568;4.656;2022-07-22T03:34:05;7.07;;;2.88;;
68256;SDS011;55069;51.568;4.656;2022-07-22T03:36:35;5.72;;;2.75;;
68256;SDS011;55069;51.568;4.656;2022-07-22T03:39:01;8.03;;;3.10;;
68256;SDS011;55069;51.568;4.656;2022-07-22T03:41:27;6.07;;;3.00;;
68256;SDS011;55069;51.568;4.656;2022-07-22T03:43:53;8.73;;;3.10;;
68256;SDS011;55069;51.568;4.656;2022-07-22T03:46:19;8.60;;;3.20;;
68256;SDS011;55069;51.568;4.656;2022-07-22T03:48:44;8.60;;;3.33;;
68256;SDS011;55069;51.568;4.656;2022-07-22T03:51:13;9.03;;;3.27;;
68256;SDS011;55069;51.568;4.656;2022-07-22T03:53:39;7.97;;;3.50;;
68256;SDS011;55069;51.568;4.656;2022-07-22T03:56:04;6.57;;;3.10;;
68256;SDS011;55069;51.568;4.656;2022-07-22T03:58:31;7.72;;;3.78;;
68256;SDS011;55069;51.568;4.656;2022-07-22T04:00:58;8.43;;;3.20;;
68256;SDS011;55069;51.568;4.656;2022-07-22T04:03:24;8.13;;;3.30;;
68256;SDS011;55069;51.568;4.656;2022-07-22T04:06:18;7.72;;;3.58;;
68256;SDS011;55069;51.568;4.656;2022-07-22T04:08:49;7.10;;;3.00;;
68256;SDS011;55069;51.568;4.656;2022-07-22T04:11:16;8.60;;;3.17;;
68256;SDS011;55069;51.568;4.656;2022-07-22T04:13:41;8.43;;;3.80;;
68256;SDS011;55069;51.568;4.656;2022-07-22T04:16:07;13.23;;;4.33;;
68256;SDS011;55069;51.568;4.656;2022-07-22T04:18:33;7.70;;;3.42;;
68256;SDS011;55069;51.568;4.656;2022-07-22T04:20:59;7.77;;;3.43;;
68256;SDS011;55069;51.568;4.656;2022-07-22T04:23:43;7.65;;;3.30;;
68256;SDS011;55069;51.568;4.656;2022-07-22T04:26:14;7.10;;;3.10;;
68256;SDS011;55069;51.568;4.656;2022-07-22T04:28:40;7.23;;;3.37;;
68256;SDS011;55069;51.568;4.656;2022-07-22T04:31:06;7.05;;;3.60;;
68256;SDS011;55069;51.568;4.656;2022-07-22T04:33:32;15.07;;;4.40;;
68256;SDS011;55069;51.568;4.656;2022-07-22T04:35:59;6.07;;;3.43;;
68256;SDS011;55069;51.568;4.656;2022-07-22T04:38:25;10.40;;;4.40;;
68256;SDS011;55069;51.568;4.656;2022-07-22T04:40:56;11.02;;;4.25;;
68256;SDS011;55069;51.568;4.656;2022-07-22T04:43:23;7.05;;;3.75;;
68256;SDS011;55069;51.568;4.656;2022-07-22T04:45:49;7.97;;;3.43;;
68256;SDS011;55069;51.568;4.656;2022-07-22T04:48:15;8.50;;;3.75;;
68256;SDS011;55069;51.568;4.656;2022-07-22T04:50:42;12.50;;;3.95;;
68256;SDS011;55069;51.568;4.656;2022-07-22T04:53:07;13.07;;;4.57;;
68256;SDS011;55069;51.568;4.656;2022-07-22T04:55:33;10.27;;;3.88;;
68256;SDS011;55069;51.568;4.656;2022-07-22T04:57:59;8.20;;;3.60;;
68256;SDS011;55069;51.568;4.656;2022-07-22T05:00:24;9.73;;;4.15;;
68256;SDS011;55069;51.568;4.656;2022-07-22T05:02:53;7.10;;;3.58;;
68256;SDS011;55069;51.568;4.656;2022-07-22T05:05:20;13.32;;;4.30;;
68256;SDS011;55069;51.568;4.656;2022-07-22T05:07:46;8.95;;;3.45;;
68256;SDS011;55069;51.568;4.656;2022-07-22T05:10:12;8.33;;;4.00;;
68256;SDS011;55069;51.568;4.656;2022-07-22T05:12:37;10.45;;;4.18;;
68256;SDS011;55069;51.568;4.656;2022-07-22T05:15:03;9.73;;;3.53;;
68256;SDS011;55069;51.568;4.656;2022-07-22T05:17:29;10.00;;;4.50;;
68256;SDS011;55069;51.568;4.656;2022-07-22T05:20:05;7.20;;;3.95;;
68256;SDS011;55069;51.568;4.656;2022-07-22T05:22:32;15.45;;;4.88;;
68256;SDS011;55069;51.568;4.656;2022-07-22T05:24:59;8.17;;;3.60;;
68256;SDS011;55069;51.568;4.656;2022-07-22T05:27:25;9.15;;;3.70;;
68256;SDS011;55069;51.568;4.656;2022-07-22T05:29:50;11.30;;;4.33;;
68256;SDS011;55069;51.568;4.656;2022-07-22T05:32:16;9.10;;;4.33;;
68256;SDS011;55069;51.568;4.656;2022-07-22T05:34:42;10.52;;;4.18;;
68256;SDS011;55069;51.568;4.656;2022-07-22T05:37:08;12.90;;;4.67;;
68256;SDS011;55069;51.568;4.656;2022-07-22T05:39:33;15.52;;;5.22;;
68256;SDS011;55069;51.568;4.656;2022-07-22T05:41:59;12.90;;;4.93;;
68256;SDS011;55069;51.568;4.656;2022-07-22T05:44:24;11.97;;;4.90;;
68256;SDS011;55069;51.568;4.656;2022-07-22T05:46:50;16.80;;;4.35;;
68256;SDS011;55069;51.568;4.656;2022-07-22T05:49:16;14.40;;;4.50;;
68256;SDS011;55069;51.568;4.656;2022-07-22T05:51:51;15.07;;;5.00;;
68256;SDS011;55069;51.568;4.656;2022-07-22T05:54:16;10.85;;;4.22;;
68256;SDS011;55069;51.568;4.656;2022-07-22T05:56:43;14.27;;;5.33;;
68256;SDS011;55069;51.568;4.656;2022-07-22T05:59:09;16.45;;;5.22;;
68256;SDS011;55069;51.568;4.656;2022-07-22T06:01:35;13.00;;;5.45;;
68256;SDS011;55069;51.568;4.656;2022-07-22T06:04:10;11.25;;;4.13;;
68256;SDS011;55069;51.568;4.656;2022-07-22T06:06:36;18.40;;;5.07;;
68256;SDS011;55069;51.568;4.656;2022-07-22T06:09:01;14.45;;;5.43;;
68256;SDS011;55069;51.568;4.656;2022-07-22T06:11:27;12.53;;;4.60;;
68256;SDS011;55069;51.568;4.656;2022-07-22T06:13:53;15.48;;;5.55;;
68256;SDS011;55069;51.568;4.656;2022-07-22T06:16:19;19.10;;;4.97;;
68256;SDS011;55069;51.568;4.656;2022-07-22T06:18:48;10.82;;;5.25;;
68256;SDS011;55069;51.568;4.656;2022-07-22T06:21:14;17.00;;;5.10;;
68256;SDS011;55069;51.568;4.656;2022-07-22T06:23:40;16.03;;;5.27;;
68256;SDS011;55069;51.568;4.656;2022-07-22T06:26:05;14.70;;;4.30;;
68256;SDS011;55069;51.568;4.656;2022-07-22T06:28:33;10.50;;;3.93;;
68256;SDS011;55069;51.568;4.656;2022-07-22T06:30:59;9.80;;;3.88;;
68256;SDS011;55069;51.568;4.656;2022-07-22T06:33:26;12.55;;;3.60;;
68256;SDS011;55069;51.568;4.656;2022-07-22T06:35:51;8.57;;;2.93;;
68256;SDS011;55069;51.568;4.656;2022-07-22T06:38:17;12.95;;;2.53;;
68256;SDS011;55069;51.568;4.656;2022-07-22T06:41:01;17.30;;;2.90;;
68256;SDS011;55069;51.568;4.656;2022-07-22T06:43:45;10.18;;;2.53;;
68256;SDS011;55069;51.568;4.656;2022-07-22T06:46:30;10.57;;;2.50;;
68256;SDS011;55069;51.568;4.656;2022-07-22T06:48:55;11.13;;;2.42;;
68256;SDS011;55069;51.568;4.656;2022-07-22T06:51:21;15.43;;;2.40;;
68256;SDS011;55069;51.568;4.656;2022-07-22T06:53:47;11.07;;;2.67;;
68256;SDS011;55069;51.568;4.656;2022-07-22T06:56:12;6.47;;;1.55;;
68256;SDS011;55069;51.568;4.656;2022-07-22T06:58:38;11.77;;;1.80;;
68256;SDS011;55069;51.568;4.656;2022-07-22T07:01:04;12.18;;;1.92;;
68256;SDS011;55069;51.568;4.656;2022-07-22T07:03:36;6.82;;;1.88;;
68256;SDS011;55069;51.568;4.656;2022-07-22T07:06:07;10.13;;;2.05;;
68256;SDS011;55069;51.568;4.656;2022-07-22T07:09:08;13.45;;;2.72;;
68256;SDS011;55069;51.568;4.656;2022-07-22T07:11:34;8.25;;;2.20;;
68256;SDS011;55069;51.568;4.656;2022-07-22T07:14:04;8.82;;;1.92;;
68256;SDS011;55069;51.568;4.656;2022-07-22T07:16:30;8.43;;;1.70;;
68256;SDS011;55069;51.568;4.656;2022-07-22T07:18:56;9.47;;;1.60;;
68256;SDS011;55069;51.568;4.656;2022-07-22T07:21:22;8.10;;;1.80;;
68256;SDS011;55069;51.568;4.656;2022-07-22T07:23:47;7.22;;;2.10;;
68256;SDS011;55069;51.568;4.656;2022-07-22T07:26:13;11.27;;;2.20;;
68256;SDS011;55069;51.568;4.656;2022-07-22T07:28:39;8.90;;;1.70;;
68256;SDS011;55069;51.568;4.656;2022-07-22T07:31:11;6.57;;;1.60;;
68256;SDS011;55069;51.568;4.656;2022-07-22T07:33:37;11.20;;;2.10;;
68256;SDS011;55069;51.568;4.656;2022-07-22T07:36:03;9.85;;;2.25;;
68256;SDS011;55069;51.568;4.656;2022-07-22T07:38:35;10.52;;;1.70;;
68256;SDS011;55069;51.568;4.656;2022-07-22T07:41:03;5.37;;;1.00;;
68256;SDS011;55069;51.568;4.656;2022-07-22T07:43:29;6.47;;;0.95;;
68256;SDS011;55069;51.568;4.656;2022-07-22T07:45:54;6.63;;;1.07;;
68256;SDS011;55069;51.568;4.656;2022-07-22T07:48:22;6.32;;;1.20;;
68256;SDS011;55069;51.568;4.656;2022-07-22T07:50:48;4.32;;;1.20;;
68256;SDS011;55069;51.568;4.656;2022-07-22T07:53:14;8.33;;;1.27;;
68256;SDS011;55069;51.568;4.656;2022-07-22T07:55:41;6.25;;;1.38;;
68256;SDS011;55069;51.568;4.656;2022-07-22T07:58:08;5.53;;;1.40;;
68256;SDS011;55069;51.568;4.656;2022-07-22T08:00:34;7.75;;;1.40;;
68256;SDS011;55069;51.568;4.656;2022-07-22T08:03:01;5.78;;;1.20;;
68256;SDS011;55069;51.568;4.656;2022-07-22T08:05:31;4.38;;;1.02;;
68256;SDS011;55069;51.568;4.656;2022-07-22T08:07:58;7.30;;;1.20;;
68256;SDS011;55069;51.568;4.656;2022-07-22T08:10:26;6.35;;;1.23;;
68256;SDS011;55069;51.568;4.656;2022-07-22T08:13:15;4.38;;;1.27;;
68256;SDS011;55069;51.568;4.656;2022-07-22T08:16:00;5.53;;;1.60;;
68256;SDS011;55069;51.568;4.656;2022-07-22T08:18:27;4.47;;;1.33;;
68256;SDS011;55069;51.568;4.656;2022-07-22T08:20:53;10.10;;;1.38;;
68256;SDS011;55069;51.568;4.656;2022-07-22T08:23:27;6.72;;;1.20;;
68256;SDS011;55069;51.568;4.656;2022-07-22T08:25:53;7.78;;;1.17;;
68256;SDS011;55069;51.568;4.656;2022-07-22T08:28:20;5.20;;;1.40;;
68256;SDS011;55069;51.568;4.656;2022-07-22T08:30:45;5.57;;;1.00;;
68256;SDS011;55069;51.568;4.656;2022-07-22T08:33:11;7.20;;;1.60;;
68256;SDS011;55069;51.568;4.656;2022-07-22T08:35:37;7.90;;;1.20;;
68256;SDS011;55069;51.568;4.656;2022-07-22T08:38:03;4.88;;;1.27;;
68256;SDS011;55069;51.568;4.656;2022-07-22T08:40:28;5.97;;;1.70;;
68256;SDS011;55069;51.568;4.656;2022-07-22T08:42:56;6.13;;;1.42;;
68256;SDS011;55069;51.568;4.656;2022-07-22T08:45:22;6.63;;;1.27;;
68256;SDS011;55069;51.568;4.656;2022-07-22T08:47:49;7.93;;;1.40;;
68256;SDS011;55069;51.568;4.656;2022-07-22T08:50:22;6.13;;;1.27;;
68256;SDS011;55069;51.568;4.656;2022-07-22T08:52:52;5.78;;;1.55;;
68256;SDS011;55069;51.568;4.656;2022-07-22T08:55:17;10.67;;;1.53;;
68256;SDS011;55069;51.568;4.656;2022-07-22T08:57:47;3.95;;;1.33;;
68256;SDS011;55069;51.568;4.656;2022-07-22T09:00:14;6.70;;;1.60;;
68256;SDS011;55069;51.568;4.656;2022-07-22T09:02:43;4.88;;;1.08;;
68256;SDS011;55069;51.568;4.656;2022-07-22T09:05:11;9.07;;;1.35;;
68256;SDS011;55069;51.568;4.656;2022-07-22T09:07:42;5.30;;;1.42;;
68256;SDS011;55069;51.568;4.656;2022-07-22T09:10:16;5.40;;;1.30;;
68256;SDS011;55069;51.568;4.656;2022-07-22T09:13:10;13.15;;;1.60;;
68256;SDS011;55069;51.568;4.656;2022-07-22T09:15:57;6.55;;;1.75;;
68256;SDS011;55069;51.568;4.656;2022-07-22T09:18:51;8.23;;;1.98;;
68256;SDS011;55069;51.568;4.656;2022-07-22T09:21:38;6.13;;;1.92;;
68256;SDS011;55069;51.568;4.656;2022-07-22T09:26:54;5.00;;;1.67;;
68256;SDS011;55069;51.568;4.656;2022-07-22T09:29:36;7.85;;;1.65;;
68256;SDS011;55069;51.568;4.656;2022-07-22T09:32:11;9.93;;;1.50;;
68256;SDS011;55069;51.568;4.656;2022-07-22T09:35:00;6.43;;;1.60;;
68256;SDS011;55069;51.568;4.656;2022-07-22T09:40:22;5.28;;;1.52;;
68256;SDS011;55069;51.568;4.656;2022-07-22T09:45:20;7.68;;;1.45;;
68256;SDS011;55069;51.568;4.656;2022-07-22T09:47:47;4.07;;;1.55;;
68256;SDS011;55069;51.568;4.656;2022-07-22T09:50:32;6.60;;;1.83;;
68256;SDS011;55069;51.568;4.656;2022-07-22T09:53:19;7.55;;;1.30;;
68256;SDS011;55069;51.568;4.656;2022-07-22T09:56:02;6.50;;;2.72;;
68256;SDS011;55069;51.568;4.656;2022-07-22T09:58:30;4.00;;;1.70;;
68256;SDS011;55069;51.568;4.656;2022-07-22T10:01:01;3.67;;;1.60;;
68256;SDS011;55069;51.568;4.656;2022-07-22T10:03:31;4.25;;;1.85;;
68256;SDS011;55069;51.568;4.656;2022-07-22T10:06:00;6.78;;;2.20;;
68256;SDS011;55069;51.568;4.656;2022-07-22T10:08:27;5.57;;;1.73;;
68256;SDS011;55069;51.568;4.656;2022-07-22T10:10:58;6.88;;;2.00;;
68256;SDS011;55069;51.568;4.656;2022-07-22T10:13:24;5.72;;;1.70;;
68256;SDS011;55069;51.568;4.656;2022-07-22T10:15:51;9.57;;;1.98;;
68256;SDS011;55069;51.568;4.656;2022-07-22T10:18:18;7.50;;;2.13;;
68256;SDS011;55069;51.568;4.656;2022-07-22T10:20:46;7.57;;;1.80;;
68256;SDS011;55069;51.568;4.656;2022-07-22T10:23:13;6.68;;;2.10;;
68256;SDS011;55069;51.568;4.656;2022-07-22T10:25:58;9.60;;;2.05;;
68256;SDS011;55069;51.568;4.656;2022-07-22T10:28:34;4.38;;;1.58;;
68256;SDS011;55069;51.568;4.656;2022-07-22T10:31:34;8.10;;;1.40;;
68256;SDS011;55069;51.568;4.656;2022-07-22T10:33:53;4.35;;;1.60;;
68256;SDS011;55069;51.568;4.656;2022-07-22T10:36:30;4.70;;;1.58;;
68256;SDS011;55069;51.568;4.656;2022-07-22T10:39:09;7.88;;;1.73;;
68256;SDS011;55069;51.568;4.656;2022-07-22T10:41:37;5.50;;;1.85;;
68256;SDS011;55069;51.568;4.656;2022-07-22T10:44:05;7.33;;;2.00;;
68256;SDS011;55069;51.568;4.656;2022-07-22T10:49:16;6.82;;;1.63;;
68256;SDS011;55069;51.568;4.656;2022-07-22T10:57:47;7.20;;;2.20;;
68256;SDS011;55069;51.568;4.656;2022-07-22T11:00:14;6.95;;;2.08;;
68256;SDS011;55069;51.568;4.656;2022-07-22T11:02:39;6.05;;;1.95;;
68256;SDS011;55069;51.568;4.656;2022-07-22T11:05:05;6.90;;;2.17;;
68256;SDS011;55069;51.568;4.656;2022-07-22T11:07:32;9.85;;;1.88;;
68256;SDS011;55069;51.568;4.656;2022-07-22T11:10:15;6.68;;;1.70;;
68256;SDS011;55069;51.568;4.656;2022-07-22T11:12:42;6.15;;;1.65;;
68256;SDS011;55069;51.568;4.656;2022-07-22T11:15:08;5.03;;;1.23;;
68256;SDS011;55069;51.568;4.656;2022-07-22T11:17:35;11.23;;;2.55;;
68256;SDS011;55069;51.568;4.656;2022-07-22T11:20:05;6.10;;;2.10;;
68256;SDS011;55069;51.568;4.656;2022-07-22T11:22:33;5.07;;;1.98;;
68256;SDS011;55069;51.568;4.656;2022-07-22T11:24:59;8.38;;;2.42;;
68256;SDS011;55069;51.568;4.656;2022-07-22T11:27:26;6.90;;;1.90;;
68256;SDS011;55069;51.568;4.656;2022-07-22T11:29:53;5.65;;;1.98;;
68256;SDS011;55069;51.568;4.656;2022-07-22T11:32:20;5.50;;;2.40;;
68256;SDS011;55069;51.568;4.656;2022-07-22T11:34:47;5.80;;;1.90;;
68256;SDS011;55069;51.568;4.656;2022-07-22T11:37:16;7.45;;;1.95;;
68256;SDS011;55069;51.568;4.656;2022-07-22T11:39:43;6.60;;;2.45;;
68256;SDS011;55069;51.568;4.656;2022-07-22T11:42:09;4.82;;;2.35;;
68256;SDS011;55069;51.568;4.656;2022-07-22T11:44:37;7.17;;;2.20;;
68256;SDS011;55069;51.568;4.656;2022-07-22T11:47:04;10.68;;;2.58;;
68256;SDS011;55069;51.568;4.656;2022-07-22T11:49:31;6.65;;;2.63;;
68256;SDS011;55069;51.568;4.656;2022-07-22T11:52:02;6.82;;;2.60;;
68256;SDS011;55069;51.568;4.656;2022-07-22T11:54:33;8.03;;;2.90;;
68256;SDS011;55069;51.568;4.656;2022-07-22T11:56:59;5.60;;;2.42;;
68256;SDS011;55069;51.568;4.656;2022-07-22T11:59:25;7.43;;;3.25;;
68256;SDS011;55069;51.568;4.656;2022-07-22T12:01:50;6.27;;;2.97;;
68256;SDS011;55069;51.568;4.656;2022-07-22T12:04:18;6.22;;;2.80;;
68256;SDS011;55069;51.568;4.656;2022-07-22T12:06:46;8.50;;;3.13;;
68256;SDS011;55069;51.568;4.656;2022-07-22T12:09:13;7.13;;;2.83;;
68256;SDS011;55069;51.568;4.656;2022-07-22T12:11:41;7.30;;;2.47;;
68256;SDS011;55069;51.568;4.656;2022-07-22T12:14:22;9.43;;;2.77;;
68256;SDS011;55069;51.568;4.656;2022-07-22T12:17:22;5.63;;;2.65;;
68256;SDS011;55069;51.568;4.656;2022-07-22T12:19:42;5.53;;;2.65;;
68256;SDS011;55069;51.568;4.656;2022-07-22T12:24:36;10.15;;;3.03;;
68256;SDS011;55069;51.568;4.656;2022-07-22T12:27:04;6.72;;;2.47;;
68256;SDS011;55069;51.568;4.656;2022-07-22T12:32:01;6.67;;;2.30;;
68256;SDS011;55069;51.568;4.656;2022-07-22T12:34:54;5.15;;;2.50;;
68256;SDS011;55069;51.568;4.656;2022-07-22T12:37:22;10.15;;;2.83;;
68256;SDS011;55069;51.568;4.656;2022-07-22T12:42:38;8.25;;;3.15;;
68256;SDS011;55069;51.568;4.656;2022-07-22T12:45:12;7.33;;;2.70;;
68256;SDS011;55069;51.568;4.656;2022-07-22T12:50:17;5.80;;;2.88;;
68256;SDS011;55069;51.568;4.656;2022-07-22T12:52:48;5.43;;;2.25;;
68256;SDS011;55069;51.568;4.656;2022-07-22T12:55:15;5.95;;;2.80;;
68256;SDS011;55069;51.568;4.656;2022-07-22T12:57:41;6.07;;;2.00;;
68256;SDS011;55069;51.568;4.656;2022-07-22T13:00:07;5.20;;;2.17;;
68256;SDS011;55069;51.568;4.656;2022-07-22T13:02:34;5.75;;;2.40;;
68256;SDS011;55069;51.568;4.656;2022-07-22T13:04:59;6.87;;;2.77;;
68256;SDS011;55069;51.568;4.656;2022-07-22T13:07:25;5.97;;;2.10;;
68256;SDS011;55069;51.568;4.656;2022-07-22T13:09:51;5.57;;;2.30;;
68256;SDS011;55069;51.568;4.656;2022-07-22T13:12:16;6.35;;;2.70;;
68256;SDS011;55069;51.568;4.656;2022-07-22T13:14:42;7.47;;;1.83;;
68256;SDS011;55069;51.568;4.656;2022-07-22T13:17:07;7.87;;;2.37;;
68256;SDS011;55069;51.568;4.656;2022-07-22T13:19:33;5.25;;;1.98;;
68256;SDS011;55069;51.568;4.656;2022-07-22T13:21:59;7.60;;;2.40;;
68256;SDS011;55069;51.568;4.656;2022-07-22T13:24:24;8.13;;;2.13;;
68256;SDS011;55069;51.568;4.656;2022-07-22T13:26:50;7.53;;;2.23;;
68256;SDS011;55069;51.568;4.656;2022-07-22T13:29:16;9.67;;;2.90;;
68256;SDS011;55069;51.568;4.656;2022-07-22T13:31:42;4.55;;;2.47;;
68256;SDS011;55069;51.568;4.656;2022-07-22T13:34:07;6.47;;;2.80;;
68256;SDS011;55069;51.568;4.656;2022-07-22T13:36:33;6.23;;;2.13;;
68256;SDS011;55069;51.568;4.656;2022-07-22T13:38:59;5.25;;;1.92;;
68256;SDS011;55069;51.568;4.656;2022-07-22T13:41:26;4.63;;;2.13;;
68256;SDS011;55069;51.568;4.656;2022-07-22T13:43:52;4.90;;;2.63;;
68256;SDS011;55069;51.568;4.656;2022-07-22T13:46:18;8.43;;;2.50;;
68256;SDS011;55069;51.568;4.656;2022-07-22T13:48:43;7.75;;;2.28;;
68256;SDS011;55069;51.568;4.656;2022-07-22T13:51:10;12.23;;;2.95;;
68256;SDS011;55069;51.568;4.656;2022-07-22T13:53:36;6.25;;;2.50;;
68256;SDS011;55069;51.568;4.656;2022-07-22T13:56:03;7.13;;;2.53;;
68256;SDS011;55069;51.568;4.656;2022-07-22T13:58:29;7.60;;;2.50;;
68256;SDS011;55069;51.568;4.656;2022-07-22T14:00:55;7.50;;;2.53;;
68256;SDS011;55069;51.568;4.656;2022-07-22T14:03:21;8.13;;;2.60;;
68256;SDS011;55069;51.568;4.656;2022-07-22T14:05:47;9.73;;;3.23;;
68256;SDS011;55069;51.568;4.656;2022-07-22T14:08:12;6.80;;;2.58;;
68256;SDS011;55069;51.568;4.656;2022-07-22T14:10:38;8.00;;;3.07;;
68256;SDS011;55069;51.568;4.656;2022-07-22T14:13:03;6.03;;;2.73;;
68256;SDS011;55069;51.568;4.656;2022-07-22T14:15:31;7.88;;;3.13;;
68256;SDS011;55069;51.568;4.656;2022-07-22T14:17:58;10.93;;;3.17;;
68256;SDS011;55069;51.568;4.656;2022-07-22T14:20:23;5.20;;;2.30;;
68256;SDS011;55069;51.568;4.656;2022-07-22T14:22:49;7.72;;;2.65;;
68256;SDS011;55069;51.568;4.656;2022-07-22T14:25:14;7.97;;;2.90;;
68256;SDS011;55069;51.568;4.656;2022-07-22T14:27:40;6.60;;;2.65;;
68256;SDS011;55069;51.568;4.656;2022-07-22T14:30:06;5.13;;;2.87;;
68256;SDS011;55069;51.568;4.656;2022-07-22T14:32:32;7.22;;;2.60;;
68256;SDS011;55069;51.568;4.656;2022-07-22T14:34:58;8.87;;;3.13;;
68256;SDS011;55069;51.568;4.656;2022-07-22T14:37:23;11.45;;;3.20;;
68256;SDS011;55069;51.568;4.656;2022-07-22T14:39:50;7.25;;;3.05;;
68256;SDS011;55069;51.568;4.656;2022-07-22T14:42:16;6.57;;;3.27;;
68256;SDS011;55069;51.568;4.656;2022-07-22T14:44:42;10.68;;;3.65;;
68256;SDS011;55069;51.568;4.656;2022-07-22T14:47:07;6.97;;;3.70;;
68256;SDS011;55069;51.568;4.656;2022-07-22T14:49:33;7.87;;;3.80;;
68256;SDS011;55069;51.568;4.656;2022-07-22T14:51:58;8.95;;;3.70;;
68256;SDS011;55069;51.568;4.656;2022-07-22T14:54:24;10.03;;;3.63;;
68256;SDS011;55069;51.568;4.656;2022-07-22T14:56:50;9.23;;;4.43;;
68256;SDS011;55069;51.568;4.656;2022-07-22T14:59:15;7.53;;;3.70;;
68256;SDS011;55069;51.568;4.656;2022-07-22T15:01:41;6.23;;;3.97;;
68256;SDS011;55069;51.568;4.656;2022-07-22T15:04:06;10.23;;;3.70;;
68256;SDS011;55069;51.568;4.656;2022-07-22T15:06:32;5.78;;;2.60;;
68256;SDS011;55069;51.568;4.656;2022-07-22T15:08:57;8.17;;;4.07;;
68256;SDS011;55069;51.568;4.656;2022-07-22T15:11:23;10.23;;;3.43;;
68256;SDS011;55069;51.568;4.656;2022-07-22T15:13:48;9.80;;;3.30;;
68256;SDS011;55069;51.568;4.656;2022-07-22T15:16:14;9.93;;;3.13;;